Time;durP1;ratioP1;P1;durP2;ratioP2;P2;SDS_P1;SDS_P2;PMS_P1;PMS_P2;Temp;Humidity;BMP_temperature;BMP_pressure;BME280_temperature;BME280_humidity;BME280_pressure;Samples;Min_cycle;Max_cycle;Signal;HPM_P1;HPM_P2
2022/04/12 00:01:09;;;;;;;6.78;2.05;;;;;;;;;;5281732;28;20047;-70
2022/04/12 00:03:40;;;;;;;6.72;1.98;;;;;;;;;;5281466;28;20086;-71
2022/04/12 00:06:12;;;;;;;5.85;2.00;;;;;;;;;;5281530;28;20017;-71
2022/04/12 00:08:43;;;;;;;5.35;2.00;;;;;;;;;;5281299;28;20021;-71
2022/04/12 00:11:14;;;;;;;6.05;1.90;;;;;;;;;;5282130;28;20037;-70
2022/04/12 00:13:45;;;;;;;3.88;1.40;;;;;;;;;;5280858;28;20306;-71
2022/04/12 00:16:17;;;;;;;3.40;1.60;;;;;;;;;;5281686;28;20401;-71
2022/04/12 00:19:03;;;;;;;5.68;1.52;;;;;;;;;;5281675;28;20028;-71
2022/04/12 00:21:35;;;;;;;4.25;1.80;;;;;;;;;;5280845;28;20043;-70
2022/04/12 00:24:07;;;;;;;4.97;1.50;;;;;;;;;;5281700;28;20028;-70
2022/04/12 00:26:38;;;;;;;6.22;1.63;;;;;;;;;;5280304;28;20028;-70
2022/04/12 00:29:09;;;;;;;3.60;1.30;;;;;;;;;;5281194;28;20506;-70
2022/04/12 00:31:40;;;;;;;4.60;1.50;;;;;;;;;;5281044;28;20475;-69
2022/04/12 00:34:12;;;;;;;4.43;1.48;;;;;;;;;;5281316;28;20262;-69
2022/04/12 00:36:43;;;;;;;4.68;1.70;;;;;;;;;;5280794;28;20016;-70
2022/04/12 00:39:15;;;;;;;3.95;1.33;;;;;;;;;;5281703;28;20426;-70
2022/04/12 00:41:46;;;;;;;4.72;1.50;;;;;;;;;;5280367;28;20111;-70
2022/04/12 00:44:17;;;;;;;3.80;1.42;;;;;;;;;;5281455;28;20024;-70
2022/04/12 00:46:48;;;;;;;5.75;1.42;;;;;;;;;;5281054;28;20321;-69
2022/04/12 00:49:19;;;;;;;7.35;1.27;;;;;;;;;;5280805;28;20694;-70
2022/04/12 00:51:51;;;;;;;3.92;1.18;;;;;;;;;;5281097;28;20263;-70
2022/04/12 00:54:23;;;;;;;3.25;1.48;;;;;;;;;;5281388;28;20012;-70
2022/04/12 00:56:54;;;;;;;3.47;1.45;;;;;;;;;;5281037;28;20017;-70
2022/04/12 00:59:26;;;;;;;2.63;1.15;;;;;;;;;;5280963;28;20104;-70
2022/04/12 01:01:57;;;;;;;3.50;1.17;;;;;;;;;;5281288;28;20017;-71
2022/04/12 01:04:29;;;;;;;3.20;0.98;;;;;;;;;;5280323;28;20078;-71
2022/04/12 01:07:00;;;;;;;5.07;1.23;;;;;;;;;;5281562;28;20028;-71
2022/04/12 01:09:31;;;;;;;6.05;1.42;;;;;;;;;;5280463;28;20100;-70
2022/04/12 01:12:09;;;;;;;5.75;1.20;;;;;;;;;;5281495;28;20039;-71
2022/04/12 01:14:40;;;;;;;4.75;1.20;;;;;;;;;;5280569;28;20363;-71
2022/04/12 01:17:12;;;;;;;7.72;1.50;;;;;;;;;;5281193;28;20029;-70
2022/04/12 01:19:43;;;;;;;3.15;1.02;;;;;;;;;;5280899;28;20119;-70
2022/04/12 01:22:20;;;;;;;4.78;1.02;;;;;;;;;;5281359;28;20117;-71
2022/04/12 01:24:52;;;;;;;3.03;1.10;;;;;;;;;;5280670;28;20017;-71
2022/04/12 01:27:23;;;;;;;5.72;1.50;;;;;;;;;;5280476;28;20016;-69
2022/04/12 01:29:54;;;;;;;6.45;1.40;;;;;;;;;;5281265;28;20028;-70
2022/04/12 01:32:25;;;;;;;3.72;1.40;;;;;;;;;;5280141;28;20467;-70
2022/04/12 01:34:56;;;;;;;3.67;1.17;;;;;;;;;;5281108;28;20316;-70
2022/04/12 01:37:28;;;;;;;4.20;1.30;;;;;;;;;;5282726;28;20047;-71
2022/04/12 01:39:59;;;;;;;5.60;1.70;;;;;;;;;;5284726;28;20301;-70
2022/04/12 01:42:30;;;;;;;8.34;1.58;;;;;;;;;;5284629;28;20080;-71
2022/04/12 01:45:01;;;;;;;4.28;1.85;;;;;;;;;;5284594;28;20012;-70
2022/04/12 01:47:32;;;;;;;4.82;1.40;;;;;;;;;;5284293;28;20096;-70
2022/04/12 01:50:04;;;;;;;6.13;1.73;;;;;;;;;;5284811;28;20017;-70
2022/04/12 01:52:36;;;;;;;3.70;1.17;;;;;;;;;;5283912;28;20526;-70
2022/04/12 01:55:08;;;;;;;5.97;1.45;;;;;;;;;;5284709;28;20016;-71
2022/04/12 01:57:39;;;;;;;4.68;1.98;;;;;;;;;;5284025;28;20024;-70
2022/04/12 02:00:11;;;;;;;5.97;1.30;;;;;;;;;;5283975;28;20017;-70
2022/04/12 02:02:42;;;;;;;3.30;1.20;;;;;;;;;;5283848;28;20472;-70
2022/04/12 02:05:13;;;;;;;5.93;1.30;;;;;;;;;;5284893;28;20032;-70
2022/04/12 02:07:44;;;;;;;4.05;1.30;;;;;;;;;;5283389;28;20052;-70
2022/04/12 02:10:18;;;;;;;4.72;1.45;;;;;;;;;;5284449;28;20471;-70
2022/04/12 02:12:49;;;;;;;5.60;1.70;;;;;;;;;;5283236;28;20679;-70
2022/04/12 02:15:20;;;;;;;3.25;1.10;;;;;;;;;;5283893;28;20016;-70
2022/04/12 02:17:51;;;;;;;5.70;1.75;;;;;;;;;;5284040;28;20024;-70
2022/04/12 02:20:23;;;;;;;4.90;1.38;;;;;;;;;;5282977;28;20036;-70
2022/04/12 02:22:54;;;;;;;7.55;1.73;;;;;;;;;;5284052;28;20766;-70
2022/04/12 02:25:25;;;;;;;5.32;1.70;;;;;;;;;;5283600;28;20024;-70
2022/04/12 02:27:56;;;;;;;8.85;1.45;;;;;;;;;;5283580;28;20029;-70
2022/04/12 02:30:27;;;;;;;4.36;1.20;;;;;;;;;;5283307;28;20479;-70
2022/04/12 02:32:59;;;;;;;4.03;1.45;;;;;;;;;;5284216;28;20479;-71
2022/04/12 02:35:30;;;;;;;5.45;1.50;;;;;;;;;;5283462;28;20082;-70
2022/04/12 02:38:01;;;;;;;4.38;1.38;;;;;;;;;;5283655;28;20028;-70
2022/04/12 02:40:32;;;;;;;4.05;1.65;;;;;;;;;;5283443;28;20032;-70
2022/04/12 02:43:04;;;;;;;6.78;1.30;;;;;;;;;;5283177;28;20012;-70
2022/04/12 02:45:35;;;;;;;5.28;1.52;;;;;;;;;;5283352;28;20039;-69
2022/04/12 02:48:08;;;;;;;5.60;1.40;;;;;;;;;;5282531;28;20025;-70
2022/04/12 02:50:40;;;;;;;7.50;1.50;;;;;;;;;;5283180;28;20070;-70
2022/04/12 02:53:11;;;;;;;3.38;1.30;;;;;;;;;;5283999;28;20020;-70
2022/04/12 02:55:42;;;;;;;3.72;1.42;;;;;;;;;;5282648;28;20032;-70
2022/04/12 02:58:13;;;;;;;2.80;1.52;;;;;;;;;;5283381;28;20259;-70
2022/04/12 03:00:45;;;;;;;5.74;1.72;;;;;;;;;;5282712;28;20475;-69
2022/04/12 03:03:16;;;;;;;3.60;1.17;;;;;;;;;;5282907;28;20542;-70
2022/04/12 03:05:47;;;;;;;4.07;1.23;;;;;;;;;;5282719;28;20482;-70
2022/04/12 03:08:18;;;;;;;5.88;1.50;;;;;;;;;;5283297;28;20016;-70
2022/04/12 03:10:49;;;;;;;7.57;2.00;;;;;;;;;;5282322;28;20346;-70
2022/04/12 03:13:20;;;;;;;3.85;1.48;;;;;;;;;;5282469;28;20399;-70
2022/04/12 03:15:52;;;;;;;3.13;1.10;;;;;;;;;;5282905;28;20020;-69
2022/04/12 03:18:23;;;;;;;7.38;1.80;;;;;;;;;;5281834;28;20263;-71
2022/04/12 03:20:54;;;;;;;4.43;1.65;;;;;;;;;;5283263;28;20039;-70
2022/04/12 03:23:25;;;;;;;7.00;1.67;;;;;;;;;;5281863;28;20016;-70
2022/04/12 03:25:56;;;;;;;3.80;1.27;;;;;;;;;;5282595;28;20257;-70
2022/04/12 03:28:28;;;;;;;5.36;1.80;;;;;;;;;;5282165;28;20372;-70
2022/04/12 03:30:59;;;;;;;5.88;1.23;;;;;;;;;;5282268;28;20491;-70
2022/04/12 03:33:30;;;;;;;4.70;1.38;;;;;;;;;;5281809;28;20343;-70
2022/04/12 03:36:01;;;;;;;4.60;1.52;;;;;;;;;;5282717;28;20460;-70
2022/04/12 03:38:35;;;;;;;5.38;1.64;;;;;;;;;;5281260;28;20356;-71
2022/04/12 03:41:06;;;;;;;3.70;1.52;;;;;;;;;;5282571;28;20047;-71
2022/04/12 03:43:38;;;;;;;5.55;1.73;;;;;;;;;;5281891;28;20351;-71
2022/04/12 03:46:10;;;;;;;4.45;1.70;;;;;;;;;;5281864;28;20024;-71
2022/04/12 03:48:41;;;;;;;7.66;1.76;;;;;;;;;;5281894;28;20354;-70
2022/04/12 03:51:12;;;;;;;3.55;1.70;;;;;;;;;;5281803;28;20024;-71
2022/04/12 03:53:44;;;;;;;3.63;1.65;;;;;;;;;;5281678;28;20298;-72
2022/04/12 03:56:15;;;;;;;4.84;1.80;;;;;;;;;;5282486;28;20025;-71
2022/04/12 03:58:46;;;;;;;4.25;1.63;;;;;;;;;;5281104;28;20032;-71
2022/04/12 04:01:18;;;;;;;5.32;1.60;;;;;;;;;;5281795;28;20040;-71
2022/04/12 04:03:49;;;;;;;3.67;1.65;;;;;;;;;;5281639;28;20772;-70
2022/04/12 04:06:20;;;;;;;4.84;1.80;;;;;;;;;;5281362;28;20024;-71
2022/04/12 04:08:51;;;;;;;4.32;1.83;;;;;;;;;;5281774;28;20091;-71
2022/04/12 04:11:22;;;;;;;6.00;1.70;;;;;;;;;;5281451;28;20324;-71
2022/04/12 04:13:53;;;;;;;8.73;1.95;;;;;;;;;;5281356;28;20128;-70
2022/04/12 04:16:25;;;;;;;5.72;2.00;;;;;;;;;;5281418;28;20271;-71
2022/04/12 04:18:56;;;;;;;7.20;1.90;;;;;;;;;;5282155;28;20090;-71
2022/04/12 04:21:27;;;;;;;3.85;2.10;;;;;;;;;;5280544;28;20082;-71
2022/04/12 04:23:58;;;;;;;6.74;2.52;;;;;;;;;;5281992;28;20021;-71
2022/04/12 04:26:29;;;;;;;3.42;1.40;;;;;;;;;;5280810;28;20418;-71
2022/04/12 04:29:01;;;;;;;3.88;1.70;;;;;;;;;;5281883;28;20295;-71
2022/04/12 04:31:32;;;;;;;7.38;1.90;;;;;;;;;;5281271;28;20063;-71
2022/04/12 04:34:03;;;;;;;6.95;1.80;;;;;;;;;;5281419;28;20498;-70
2022/04/12 04:36:34;;;;;;;5.38;2.00;;;;;;;;;;5281039;28;20275;-71
2022/04/12 04:39:06;;;;;;;5.47;2.08;;;;;;;;;;5281836;28;20259;-70
2022/04/12 04:41:37;;;;;;;7.08;2.64;;;;;;;;;;5280735;28;20414;-71
2022/04/12 04:44:08;;;;;;;6.22;2.14;;;;;;;;;;5281609;28;20028;-71
2022/04/12 04:46:39;;;;;;;5.68;2.30;;;;;;;;;;5281013;28;20077;-71
2022/04/12 04:49:10;;;;;;;5.54;1.92;;;;;;;;;;5280725;28;20021;-72
2022/04/12 04:51:42;;;;;;;5.40;2.70;;;;;;;;;;5281253;28;20475;-70
2022/04/12 04:54:13;;;;;;;6.22;2.47;;;;;;;;;;5281632;28;20016;-70
2022/04/12 04:56:44;;;;;;;6.70;2.22;;;;;;;;;;5280204;28;20067;-70
2022/04/12 04:59:15;;;;;;;4.82;2.33;;;;;;;;;;5281577;28;20259;-70
2022/04/12 05:01:46;;;;;;;5.47;2.00;;;;;;;;;;5280281;28;20417;-71
2022/04/12 05:04:17;;;;;;;4.82;2.58;;;;;;;;;;5281325;28;20275;-70
2022/04/12 05:06:48;;;;;;;7.76;2.90;;;;;;;;;;5281172;28;20255;-70
2022/04/12 05:09:20;;;;;;;7.00;2.67;;;;;;;;;;5280529;28;20085;-70
2022/04/12 05:11:51;;;;;;;5.36;2.38;;;;;;;;;;5282531;28;20516;-70
2022/04/12 05:14:22;;;;;;;7.20;2.30;;;;;;;;;;5284708;28;20087;-70
2022/04/12 05:16:53;;;;;;;7.43;2.08;;;;;;;;;;5285060;28;20474;-70
2022/04/12 05:19:24;;;;;;;10.34;2.66;;;;;;;;;;5284710;28;20267;-69
2022/04/12 05:21:56;;;;;;;5.85;2.35;;;;;;;;;;5285553;28;20033;-69
2022/04/12 05:24:27;;;;;;;4.78;2.17;;;;;;;;;;5283954;28;20271;-71
2022/04/12 05:26:58;;;;;;;5.50;2.16;;;;;;;;;;5285334;28;20690;-71
2022/04/12 05:29:29;;;;;;;3.97;2.17;;;;;;;;;;5284554;28;20028;-70
2022/04/12 05:32:00;;;;;;;7.28;2.38;;;;;;;;;;5284327;28;20286;-70
2022/04/12 05:34:31;;;;;;;6.68;2.35;;;;;;;;;;5284791;28;20895;-70
2022/04/12 05:37:03;;;;;;;5.90;2.13;;;;;;;;;;5284351;28;20051;-70
2022/04/12 05:39:34;;;;;;;5.72;2.47;;;;;;;;;;5284223;28;20538;-70
2022/04/12 05:42:05;;;;;;;8.24;2.50;;;;;;;;;;5284940;28;20116;-70
2022/04/12 05:44:36;;;;;;;8.38;2.80;;;;;;;;;;5283661;28;20013;-70
2022/04/12 05:47:10;;;;;;;8.32;3.03;;;;;;;;;;5284634;28;20463;-71
2022/04/12 05:49:41;;;;;;;8.73;3.00;;;;;;;;;;5284277;28;20494;-71
2022/04/12 05:52:12;;;;;;;5.14;2.82;;;;;;;;;;5284500;28;20091;-72
2022/04/12 05:54:43;;;;;;;5.10;2.75;;;;;;;;;;5283802;28;20099;-71
2022/04/12 05:57:15;;;;;;;8.27;3.10;;;;;;;;;;5284764;28;20024;-71
2022/04/12 05:59:46;;;;;;;5.13;2.78;;;;;;;;;;5283046;28;20270;-72
2022/04/12 06:02:17;;;;;;;5.93;3.13;;;;;;;;;;5284239;28;20120;-71
2022/04/12 06:04:48;;;;;;;11.07;4.00;;;;;;;;;;5283363;28;20279;-72
2022/04/12 06:07:19;;;;;;;3.94;2.44;;;;;;;;;;5283945;28;20254;-70
2022/04/12 06:09:50;;;;;;;7.85;2.58;;;;;;;;;;5283998;28;20387;-71
2022/04/12 06:12:22;;;;;;;7.57;3.00;;;;;;;;;;5283605;28;20290;-71
2022/04/12 06:14:53;;;;;;;7.85;2.67;;;;;;;;;;5284134;28;20033;-71
2022/04/12 06:17:28;;;;;;;6.53;2.80;;;;;;;;;;5283728;28;20107;-71
2022/04/12 06:20:01;;;;;;;6.65;2.63;;;;;;;;;;5283635;28;20143;-72
2022/04/12 06:22:32;;;;;;;6.93;3.25;;;;;;;;;;5282364;28;20111;-71
2022/04/12 06:25:04;;;;;;;7.13;2.83;;;;;;;;;;5283773;28;20436;-71
2022/04/12 06:27:35;;;;;;;10.32;3.30;;;;;;;;;;5282869;28;20027;-71
2022/04/12 06:30:11;;;;;;;8.30;2.70;;;;;;;;;;5284192;28;20031;-71
2022/04/12 06:32:43;;;;;;;5.78;2.80;;;;;;;;;;5283505;28;20013;-72
2022/04/12 06:35:15;;;;;;;4.88;2.72;;;;;;;;;;5283135;28;20038;-71
2022/04/12 06:37:47;;;;;;;6.43;2.85;;;;;;;;;;5283079;28;20107;-71
2022/04/12 06:40:19;;;;;;;4.47;2.28;;;;;;;;;;5282744;28;20368;-71
2022/04/12 06:42:51;;;;;;;6.45;2.65;;;;;;;;;;5283078;28;20028;-72
2022/04/12 06:45:23;;;;;;;6.05;2.60;;;;;;;;;;5283181;28;20074;-71
2022/04/12 06:47:55;;;;;;;8.45;2.72;;;;;;;;;;5282960;28;20016;-71
2022/04/12 06:50:27;;;;;;;4.28;2.28;;;;;;;;;;5282561;28;20055;-71
2022/04/12 06:52:58;;;;;;;4.43;2.40;;;;;;;;;;5283233;28;20052;-71
2022/04/12 06:55:30;;;;;;;6.75;2.28;;;;;;;;;;5281931;28;20471;-71
2022/04/12 06:58:01;;;;;;;5.40;2.90;;;;;;;;;;5283316;28;20058;-71
2022/04/12 07:00:32;;;;;;;7.35;2.70;;;;;;;;;;5282747;28;20579;-71
2022/04/12 07:03:03;;;;;;;5.65;2.78;;;;;;;;;;5282899;28;20016;-72
2022/04/12 07:05:34;;;;;;;7.18;2.28;;;;;;;;;;5282742;28;20078;-71
2022/04/12 07:08:06;;;;;;;5.20;1.98;;;;;;;;;;5282784;28;20468;-72
2022/04/12 07:10:37;;;;;;;4.40;2.20;;;;;;;;;;5282635;28;20798;-72
2022/04/12 07:13:08;;;;;;;6.77;2.13;;;;;;;;;;5283063;28;20045;-72
2022/04/12 07:15:39;;;;;;;6.22;2.67;;;;;;;;;;5282125;28;20362;-72
2022/04/12 07:18:10;;;;;;;7.90;2.40;;;;;;;;;;5283007;28;20029;-72
2022/04/12 07:20:41;;;;;;;5.57;2.58;;;;;;;;;;5282177;28;20025;-72
2022/04/12 07:23:13;;;;;;;4.32;1.98;;;;;;;;;;5282371;28;20111;-72
2022/04/12 07:25:44;;;;;;;5.97;1.92;;;;;;;;;;5281840;28;20307;-71
2022/04/12 07:28:15;;;;;;;6.70;2.08;;;;;;;;;;5282908;28;20074;-71
2022/04/12 07:30:46;;;;;;;8.63;2.70;;;;;;;;;;5281477;28;20028;-70
2022/04/12 07:33:17;;;;;;;3.40;1.75;;;;;;;;;;5282568;28;20772;-71
2022/04/12 07:35:48;;;;;;;5.30;2.07;;;;;;;;;;5281414;28;20362;-71
2022/04/12 07:38:20;;;;;;;5.43;2.10;;;;;;;;;;5281412;28;20263;-71
2022/04/12 07:40:51;;;;;;;5.32;1.80;;;;;;;;;;5281891;28;20037;-71
2022/04/12 07:43:22;;;;;;;10.68;2.10;;;;;;;;;;5281110;28;20490;-69
2022/04/12 07:45:53;;;;;;;3.33;1.85;;;;;;;;;;5281970;28;20070;-70
2022/04/12 07:48:24;;;;;;;5.07;1.40;;;;;;;;;;5281467;28;20278;-70
2022/04/12 07:50:56;;;;;;;5.43;1.77;;;;;;;;;;5281778;28;20610;-71
2022/04/12 07:53:27;;;;;;;6.00;2.28;;;;;;;;;;5281630;28;20025;-71
2022/04/12 07:55:58;;;;;;;5.00;1.48;;;;;;;;;;5282376;28;20021;-71
2022/04/12 07:58:29;;;;;;;6.67;1.40;;;;;;;;;;5275578;28;20270;-71
2022/04/12 08:01:00;;;;;;;3.70;1.10;;;;;;;;;;5280816;28;20294;-71
2022/04/12 08:03:31;;;;;;;8.57;1.70;;;;;;;;;;5281306;28;20261;-71
2022/04/12 08:06:03;;;;;;;4.17;1.17;;;;;;;;;;5281254;28;20267;-71
2022/04/12 08:08:34;;;;;;;3.27;1.70;;;;;;;;;;5281213;28;20263;-72
2022/04/12 08:11:05;;;;;;;4.40;1.25;;;;;;;;;;5281823;28;20753;-72
2022/04/12 08:13:37;;;;;;;6.28;1.52;;;;;;;;;;5280359;28;20049;-72
2022/04/12 08:16:09;;;;;;;3.25;1.38;;;;;;;;;;5282287;28;20387;-72
2022/04/12 08:18:40;;;;;;;2.75;1.50;;;;;;;;;;5280967;28;20021;-73
2022/04/12 08:21:11;;;;;;;6.93;1.83;;;;;;;;;;5281123;28;20118;-73
2022/04/12 08:23:42;;;;;;;5.82;1.52;;;;;;;;;;5280986;28;20098;-71
2022/04/12 08:26:13;;;;;;;2.70;1.10;;;;;;;;;;5281280;28;20111;-72
2022/04/12 08:28:45;;;;;;;3.50;0.90;;;;;;;;;;5281018;28;20598;-72
2022/04/12 08:31:16;;;;;;;4.70;1.20;;;;;;;;;;5281890;28;20047;-71
2022/04/12 08:33:47;;;;;;;4.22;1.15;;;;;;;;;;5280153;28;20367;-71
2022/04/12 08:36:21;;;;;;;3.78;1.38;;;;;;;;;;5281439;28;20027;-72
2022/04/12 08:38:53;;;;;;;3.78;0.90;;;;;;;;;;5281858;28;20540;-71
2022/04/12 08:41:26;;;;;;;2.50;0.85;;;;;;;;;;5280143;28;20052;-71
2022/04/12 08:43:58;;;;;;;5.07;1.13;;;;;;;;;;5281606;28;20436;-71
2022/04/12 08:46:29;;;;;;;2.80;0.85;;;;;;;;;;5279646;28;20039;-71
2022/04/12 08:49:01;;;;;;;2.58;0.60;;;;;;;;;;5281178;28;20048;-72
2022/04/12 08:51:32;;;;;;;4.85;1.13;;;;;;;;;;5280510;28;20325;-72
2022/04/12 08:54:04;;;;;;;4.70;0.70;;;;;;;;;;5280829;28;20355;-72
2022/04/12 08:56:36;;;;;;;3.00;0.70;;;;;;;;;;5280374;28;20023;-73
2022/04/12 08:59:07;;;;;;;4.75;0.65;;;;;;;;;;5281220;28;20108;-72
2022/04/12 09:01:39;;;;;;;3.23;0.83;;;;;;;;;;5280037;28;20234;-72
2022/04/12 09:04:10;;;;;;;4.15;1.00;;;;;;;;;;5281028;28;20274;-71
2022/04/12 09:06:52;;;;;;;3.17;0.70;;;;;;;;;;5280972;28;20521;-72
2022/04/12 09:09:24;;;;;;;2.75;0.65;;;;;;;;;;5279847;28;20043;-72
2022/04/12 09:11:57;;;;;;;3.65;0.60;;;;;;;;;;5281292;28;20017;-72
2022/04/12 09:14:39;;;;;;;5.90;0.68;;;;;;;;;;5280538;28;20467;-71
2022/04/12 09:17:11;;;;;;;5.35;0.80;;;;;;;;;;5281126;28;20112;-70
2022/04/12 09:19:44;;;;;;;4.63;0.90;;;;;;;;;;5280621;28;20024;-72
2022/04/12 09:22:17;;;;;;;4.90;0.80;;;;;;;;;;5280531;28;20032;-71
2022/04/12 09:24:48;;;;;;;7.03;1.05;;;;;;;;;;5280476;28;20016;-72
2022/04/12 09:27:26;;;;;;;5.97;0.77;;;;;;;;;;5281091;28;20020;-74
2022/04/12 09:29:59;;;;;;;5.00;0.82;;;;;;;;;;5280340;28;20350;-71
2022/04/12 09:32:37;;;;;;;3.28;0.65;;;;;;;;;;5280578;28;20115;-71
2022/04/12 09:35:09;;;;;;;3.15;0.60;;;;;;;;;;5281419;28;20044;-71
2022/04/12 09:37:42;;;;;;;3.95;0.77;;;;;;;;;;5278977;28;20106;-71
2022/04/12 09:40:14;;;;;;;8.90;0.90;;;;;;;;;;5281240;28;20042;-71
2022/04/12 09:42:49;;;;;;;7.70;0.80;;;;;;;;;;5279952;28;20028;-71
2022/04/12 09:45:24;;;;;;;5.78;0.70;;;;;;;;;;5280313;28;20102;-71
2022/04/12 09:47:57;;;;;;;3.38;0.70;;;;;;;;;;5281028;28;20138;-71
2022/04/12 09:50:28;;;;;;;2.90;0.70;;;;;;;;;;5280025;28;20020;-71
2022/04/12 09:53:01;;;;;;;4.60;0.77;;;;;;;;;;5280443;28;20116;-72
2022/04/12 09:55:34;;;;;;;3.92;0.90;;;;;;;;;;5280154;28;20020;-71
2022/04/12 09:58:07;;;;;;;5.80;0.60;;;;;;;;;;5282151;28;20086;-70
2022/04/12 10:00:39;;;;;;;7.10;0.90;;;;;;;;;;5283874;28;20054;-71
2022/04/12 10:03:12;;;;;;;3.72;0.80;;;;;;;;;;5284567;28;20025;-71
2022/04/12 10:05:43;;;;;;;2.75;0.85;;;;;;;;;;5282574;28;20016;-71
2022/04/12 10:08:16;;;;;;;6.63;0.70;;;;;;;;;;5284166;28;20028;-72
2022/04/12 10:10:47;;;;;;;2.92;0.80;;;;;;;;;;5284059;28;20016;-72
2022/04/12 10:13:19;;;;;;;4.45;0.73;;;;;;;;;;5283302;28;20517;-71
2022/04/12 10:15:51;;;;;;;7.03;1.20;;;;;;;;;;5284140;28;20021;-72
2022/04/12 10:18:23;;;;;;;5.20;0.77;;;;;;;;;;5283096;28;20468;-72
2022/04/12 10:20:54;;;;;;;4.22;0.60;;;;;;;;;;5283726;28;20033;-71
2022/04/12 10:23:26;;;;;;;4.30;0.68;;;;;;;;;;5283814;28;20016;-71
2022/04/12 10:25:58;;;;;;;5.53;1.15;;;;;;;;;;5283284;28;20020;-71
2022/04/12 10:28:29;;;;;;;4.68;0.70;;;;;;;;;;5283511;28;20521;-70
2022/04/12 10:31:02;;;;;;;6.32;0.75;;;;;;;;;;5283931;28;20020;-71
2022/04/12 10:33:34;;;;;;;5.03;0.80;;;;;;;;;;5282757;28;20471;-71
2022/04/12 10:36:07;;;;;;;4.90;0.73;;;;;;;;;;5283871;28;20039;-71
2022/04/12 10:38:43;;;;;;;4.22;0.70;;;;;;;;;;5283391;28;20017;-71
2022/04/12 10:41:15;;;;;;;3.40;0.70;;;;;;;;;;5283043;28;20111;-71
2022/04/12 10:43:53;;;;;;;7.55;0.80;;;;;;;;;;5282704;28;20052;-69
2022/04/12 10:46:27;;;;;;;5.15;0.75;;;;;;;;;;5282605;28;20032;-69
2022/04/12 10:49:05;;;;;;;5.32;0.70;;;;;;;;;;5283077;28;20025;-68
2022/04/12 10:51:38;;;;;;;5.07;0.80;;;;;;;;;;5283107;28;20098;-69
2022/04/12 10:54:29;;;;;;;4.65;0.98;;;;;;;;;;5282960;28;20020;-69
2022/04/12 10:57:19;;;;;;;2.80;0.88;;;;;;;;;;5283686;28;20024;-69
2022/04/12 10:59:54;;;;;;;3.90;0.90;;;;;;;;;;5283133;28;20527;-69
2022/04/12 11:02:35;;;;;;;4.28;0.85;;;;;;;;;;5281718;28;20483;-69
2022/04/12 11:05:08;;;;;;;8.20;1.05;;;;;;;;;;5283346;28;20101;-70
2022/04/12 11:07:39;;;;;;;3.55;0.80;;;;;;;;;;5281860;28;20377;-70
2022/04/12 11:10:13;;;;;;;5.28;0.93;;;;;;;;;;5282137;28;20031;-70
2022/04/12 11:12:44;;;;;;;6.57;1.13;;;;;;;;;;5282436;28;20431;-70
2022/04/12 11:15:24;;;;;;;2.75;0.70;;;;;;;;;;5282435;28;20036;-69
2022/04/12 11:18:04;;;;;;;2.83;0.63;;;;;;;;;;5283174;28;20095;-69
2022/04/12 11:20:36;;;;;;;5.85;0.73;;;;;;;;;;5282282;28;20105;-69
2022/04/12 11:23:12;;;;;;;4.03;0.70;;;;;;;;;;5281806;28;20059;-69
2022/04/12 11:25:47;;;;;;;2.35;0.70;;;;;;;;;;5282147;28;20062;-69
2022/04/12 11:28:22;;;;;;;5.40;1.25;;;;;;;;;;5282080;28;20025;-69
2022/04/12 11:30:54;;;;;;;4.88;1.23;;;;;;;;;;5282604;28;20021;-69
2022/04/12 11:33:29;;;;;;;4.63;1.15;;;;;;;;;;5282081;28;20028;-70
2022/04/12 11:36:01;;;;;;;4.40;0.90;;;;;;;;;;5282321;28;20471;-70
2022/04/12 11:38:36;;;;;;;4.15;0.60;;;;;;;;;;5277118;28;20035;-70
2022/04/12 11:41:07;;;;;;;3.58;0.88;;;;;;;;;;5282330;28;20024;-69
2022/04/12 11:43:38;;;;;;;4.68;0.85;;;;;;;;;;5281057;28;20782;-69
2022/04/12 11:46:15;;;;;;;10.32;1.10;;;;;;;;;;5282456;28;20142;-69
2022/04/12 11:48:46;;;;;;;2.85;0.75;;;;;;;;;;5281844;28;20020;-69
2022/04/12 11:51:17;;;;;;;6.03;1.10;;;;;;;;;;5281276;28;20017;-69
2022/04/12 11:53:49;;;;;;;6.78;1.10;;;;;;;;;;5281395;28;20020;-69
2022/04/12 11:56:20;;;;;;;8.68;1.00;;;;;;;;;;5281768;28;20137;-70
2022/04/12 11:58:51;;;;;;;5.55;1.00;;;;;;;;;;5281469;28;20020;-69
2022/04/12 12:01:29;;;;;;;5.13;1.10;;;;;;;;;;5281406;28;20078;-69
2022/04/12 12:04:07;;;;;;;6.60;1.33;;;;;;;;;;5281512;28;20462;-70
2022/04/12 12:06:58;;;;;;;8.50;1.42;;;;;;;;;;5281354;28;20099;-69
2022/04/12 12:09:29;;;;;;;4.68;1.00;;;;;;;;;;5281333;28;20070;-68
2022/04/12 12:12:02;;;;;;;7.07;1.17;;;;;;;;;;5281146;28;20017;-70
2022/04/12 12:14:33;;;;;;;4.82;1.45;;;;;;;;;;5280990;28;20407;-70
2022/04/12 12:17:06;;;;;;;5.70;2.03;;;;;;;;;;5281643;28;20025;-71
2022/04/12 12:19:40;;;;;;;4.07;1.40;;;;;;;;;;5280596;28;20020;-69
2022/04/12 12:22:12;;;;;;;8.20;1.30;;;;;;;;;;5280662;28;20105;-68
2022/04/12 12:24:50;;;;;;;6.38;1.77;;;;;;;;;;5280636;28;20021;-69
2022/04/12 12:27:33;;;;;;;4.40;1.58;;;;;;;;;;5281126;28;20008;-69
2022/04/12 12:30:06;;;;;;;4.28;1.60;;;;;;;;;;5281002;28;20036;-69
2022/04/12 12:32:38;;;;;;;5.50;1.10;;;;;;;;;;5280133;28;20540;-68
2022/04/12 12:35:09;;;;;;;6.68;1.55;;;;;;;;;;5281399;28;20122;-69
2022/04/12 12:37:41;;;;;;;5.20;1.00;;;;;;;;;;5281172;28;20034;-69
2022/04/12 12:40:16;;;;;;;3.65;0.93;;;;;;;;;;5280816;28;20022;-69
2022/04/12 12:42:48;;;;;;;4.68;1.27;;;;;;;;;;5280441;28;20127;-70
2022/04/12 12:45:20;;;;;;;2.67;0.90;;;;;;;;;;5280687;28;20531;-69
2022/04/12 12:47:53;;;;;;;3.97;0.80;;;;;;;;;;5280366;28;20103;-69
2022/04/12 12:50:25;;;;;;;5.93;1.08;;;;;;;;;;5280752;28;20479;-68
2022/04/12 12:53:00;;;;;;;6.38;1.05;;;;;;;;;;5280570;28;20025;-68
2022/04/12 12:55:32;;;;;;;5.82;1.10;;;;;;;;;;5280807;28;20097;-69
2022/04/12 12:58:07;;;;;;;4.70;0.90;;;;;;;;;;5281441;28;20349;-69
2022/04/12 13:00:39;;;;;;;3.85;1.15;;;;;;;;;;5280045;28;20326;-69
2022/04/12 13:03:12;;;;;;;4.82;1.40;;;;;;;;;;5281285;28;20082;-69
2022/04/12 13:06:00;;;;;;;3.35;1.05;;;;;;;;;;5279498;28;20023;-68
2022/04/12 13:08:32;;;;;;;7.35;2.55;;;;;;;;;;5279943;28;20043;-69
2022/04/12 13:11:03;;;;;;;5.50;1.10;;;;;;;;;;5281184;28;20028;-69
2022/04/12 13:13:35;;;;;;;5.33;1.50;;;;;;;;;;5280500;28;20481;-69
2022/04/12 13:16:06;;;;;;;5.07;0.85;;;;;;;;;;5280923;28;20283;-69
2022/04/12 13:18:37;;;;;;;5.55;0.90;;;;;;;;;;5280993;28;20070;-69
2022/04/12 13:21:11;;;;;;;6.30;0.80;;;;;;;;;;5280842;28;20032;-69
2022/04/12 13:23:42;;;;;;;4.72;0.63;;;;;;;;;;5280481;28;20677;-69
2022/04/12 13:26:13;;;;;;;3.38;0.65;;;;;;;;;;5281166;28;20067;-70
2022/04/12 13:28:44;;;;;;;4.07;0.80;;;;;;;;;;5280126;28;20021;-69
2022/04/12 13:31:16;;;;;;;4.43;0.70;;;;;;;;;;5281034;28;20028;-69
2022/04/12 13:33:47;;;;;;;3.97;0.50;;;;;;;;;;5283228;28;20416;-69
2022/04/12 13:36:18;;;;;;;3.92;0.60;;;;;;;;;;5283397;28;20020;-73
2022/04/12 13:38:49;;;;;;;5.22;0.50;;;;;;;;;;5284686;28;20046;-71
2022/04/12 13:41:20;;;;;;;4.27;0.50;;;;;;;;;;5284485;28;20082;-71
2022/04/12 13:43:51;;;;;;;2.90;0.50;;;;;;;;;;5283701;28;20103;-71
2022/04/12 13:46:22;;;;;;;9.15;1.02;;;;;;;;;;5284108;28;20627;-71
2022/04/12 13:48:54;;;;;;;1.95;0.35;;;;;;;;;;5284109;28;20099;-71
2022/04/12 13:51:25;;;;;;;3.97;0.40;;;;;;;;;;5283895;28;20054;-71
2022/04/12 13:53:56;;;;;;;3.20;0.50;;;;;;;;;;5284393;28;20025;-71
2022/04/12 13:56:28;;;;;;;4.78;0.40;;;;;;;;;;5283185;28;20012;-71
2022/04/12 13:58:59;;;;;;;8.32;0.52;;;;;;;;;;5284281;28;20016;-71
2022/04/12 14:01:30;;;;;;;3.58;0.40;;;;;;;;;;5283474;28;20387;-71
2022/04/12 14:04:02;;;;;;;5.45;0.50;;;;;;;;;;5283500;28;20422;-71
2022/04/12 14:06:33;;;;;;;2.83;0.40;;;;;;;;;;5284023;28;20020;-72
2022/04/12 14:09:04;;;;;;;4.82;0.40;;;;;;;;;;5284545;28;20031;-71
2022/04/12 14:11:35;;;;;;;7.72;0.50;;;;;;;;;;5283216;28;20081;-72
2022/04/12 14:14:07;;;;;;;4.30;0.47;;;;;;;;;;5284348;28;20036;-70
2022/04/12 14:16:38;;;;;;;3.10;0.50;;;;;;;;;;5284105;28;20040;-71
2022/04/12 14:19:11;;;;;;;5.03;0.60;;;;;;;;;;5283734;28;20031;-71
2022/04/12 14:21:42;;;;;;;2.45;0.40;;;;;;;;;;5283716;28;20094;-71
2022/04/12 14:24:13;;;;;;;6.63;0.52;;;;;;;;;;5283656;28;20036;-71
2022/04/12 14:26:45;;;;;;;6.97;0.50;;;;;;;;;;5283618;28;20051;-71
2022/04/12 14:29:16;;;;;;;6.50;0.70;;;;;;;;;;5284228;28;20420;-72
2022/04/12 14:31:47;;;;;;;2.70;0.40;;;;;;;;;;5282814;28;20277;-72
2022/04/12 14:34:18;;;;;;;4.32;0.50;;;;;;;;;;5283700;28;20266;-72
2022/04/12 14:36:49;;;;;;;3.17;0.50;;;;;;;;;;5283597;28;20020;-71
2022/04/12 14:39:20;;;;;;;4.43;0.38;;;;;;;;;;5283109;28;20749;-71
2022/04/12 14:41:53;;;;;;;3.45;0.68;;;;;;;;;;5283937;28;20029;-74
2022/04/12 14:44:24;;;;;;;4.10;0.75;;;;;;;;;;5282314;28;20155;-70
2022/04/12 14:46:55;;;;;;;2.80;0.57;;;;;;;;;;5283124;28;20021;-73
2022/04/12 14:49:26;;;;;;;4.22;0.40;;;;;;;;;;5283157;28;20047;-72
2022/04/12 14:51:58;;;;;;;4.80;0.40;;;;;;;;;;5289777;28;20012;-71
2022/04/12 14:54:30;;;;;;;6.93;0.90;;;;;;;;;;5295626;28;20382;-72
2022/04/12 14:57:01;;;;;;;8.25;0.47;;;;;;;;;;5293170;28;20024;-71
2022/04/12 14:59:32;;;;;;;3.10;0.40;;;;;;;;;;5282465;28;20070;-69
2022/04/12 15:02:03;;;;;;;3.93;0.40;;;;;;;;;;5283226;28;20302;-70
2022/04/12 15:04:34;;;;;;;4.25;0.60;;;;;;;;;;5282850;28;20345;-71
2022/04/12 15:07:05;;;;;;;4.15;0.40;;;;;;;;;;5282762;28;20044;-70
2022/04/12 15:09:36;;;;;;;4.22;0.50;;;;;;;;;;5282778;28;20103;-71
2022/04/12 15:12:08;;;;;;;6.35;0.60;;;;;;;;;;5283182;28;20036;-70